createdAt,value
2023-04-25T00:00:20.207Z,3.10
2023-04-25T00:02:47.694Z,2.50
2023-04-25T00:05:16.497Z,3.17
2023-04-25T00:07:44.883Z,4.53
2023-04-25T00:10:12.933Z,3.53
2023-04-25T00:12:40.207Z,4.03
2023-04-25T00:15:07.811Z,2.88
2023-04-25T00:17:36.080Z,3.08
2023-04-25T00:20:06.208Z,2.60
2023-04-25T00:22:35.514Z,3.22
2023-04-25T00:25:02.515Z,3.20
2023-04-25T00:27:29.519Z,4.43
2023-04-25T00:29:56.471Z,3.72
2023-04-25T00:32:23.465Z,3.85
2023-04-25T00:34:50.438Z,4.53
2023-04-25T00:37:17.492Z,4.45
2023-04-25T00:39:44.609Z,3.13
2023-04-25T00:42:12.031Z,2.22
2023-04-25T00:44:39.842Z,3.28
2023-04-25T00:47:08.032Z,7.90
2023-04-25T00:49:35.130Z,2.90
2023-04-25T00:52:02.121Z,2.63
2023-04-25T00:54:29.553Z,3.65
2023-04-25T00:56:56.557Z,4.07
2023-04-25T00:59:23.844Z,3.75
2023-04-25T01:01:51.605Z,4.95
2023-04-25T01:04:18.852Z,3.90
2023-04-25T01:06:46.299Z,4.88
2023-04-25T01:09:13.930Z,2.72
2023-04-25T01:11:41.443Z,3.47
2023-04-25T01:14:08.702Z,2.72
2023-04-25T01:16:35.976Z,2.40
2023-04-25T01:19:12.343Z,3.05
2023-04-25T01:21:39.434Z,4.25
2023-04-25T01:24:07.241Z,2.85
2023-04-25T01:26:43.436Z,4.45
2023-04-25T01:29:10.960Z,3.10
2023-04-25T01:31:38.675Z,2.92
2023-04-25T01:34:06.549Z,3.15
2023-04-25T01:36:33.943Z,4.30
2023-04-25T01:39:01.912Z,3.35
2023-04-25T01:41:29.544Z,4.72
2023-04-25T01:43:57.462Z,4.22
2023-04-25T01:46:24.846Z,3.70
2023-04-25T01:48:51.934Z,4.35
2023-04-25T01:51:19.215Z,3.80
2023-04-25T01:53:46.595Z,3.78
2023-04-25T01:56:14.515Z,3.38
2023-04-25T01:58:41.488Z,2.53
2023-04-25T02:01:20.952Z,4.70
2023-04-25T02:04:02.010Z,4.07
2023-04-25T02:06:34.763Z,3.35
2023-04-25T02:09:01.812Z,5.32
2023-04-25T02:11:28.885Z,2.40
2023-04-25T02:14:16.209Z,3.55
2023-04-25T02:17:09.555Z,2.88
2023-04-25T02:19:36.930Z,4.32
2023-04-25T02:22:04.030Z,5.70
2023-04-25T02:24:31.155Z,2.53
2023-04-25T02:26:58.433Z,4.30
2023-04-25T02:29:25.445Z,2.85
2023-04-25T02:31:52.509Z,4.60
2023-04-25T02:34:22.977Z,3.17
2023-04-25T02:36:53.254Z,2.65
2023-04-25T02:39:20.313Z,2.42
2023-04-25T02:41:47.483Z,3.08
2023-04-25T02:44:14.485Z,5.55
2023-04-25T02:46:41.657Z,3.83
2023-04-25T02:49:24.129Z,5.80
2023-04-25T02:51:53.032Z,2.55
2023-04-25T02:54:20.026Z,4.90
2023-04-25T02:56:48.946Z,4.07
2023-04-25T02:59:21.548Z,2.83
2023-04-25T03:01:51.281Z,3.92
2023-04-25T03:04:20.348Z,4.05
2023-04-25T03:06:48.220Z,2.97
2023-04-25T03:09:15.257Z,2.45
2023-04-25T03:11:42.670Z,3.45
2023-04-25T03:14:09.666Z,5.55
2023-04-25T03:16:36.746Z,4.40
2023-04-25T03:19:04.794Z,3.10
2023-04-25T03:21:34.651Z,3.67
2023-04-25T03:24:03.458Z,4.57
2023-04-25T03:26:31.019Z,3.50
2023-04-25T03:29:08.319Z,5.93
2023-04-25T03:31:36.483Z,2.42
2023-04-25T03:34:03.509Z,5.03
2023-04-25T03:36:30.636Z,4.30
2023-04-25T03:38:57.706Z,4.57
2023-04-25T03:41:24.931Z,3.42
2023-04-25T03:44:00.894Z,3.33
2023-04-25T03:46:28.456Z,5.53
2023-04-25T03:48:55.959Z,6.82
2023-04-25T03:51:29.762Z,6.57
2023-04-25T03:53:56.721Z,2.67
2023-04-25T03:56:51.159Z,4.38
2023-04-25T03:59:24.138Z,5.15
2023-04-25T04:01:51.092Z,3.70
2023-04-25T04:04:18.680Z,4.28
2023-04-25T04:06:46.910Z,2.75
2023-04-25T04:09:19.152Z,10.57
2023-04-25T04:11:47.335Z,2.60
2023-04-25T04:14:14.416Z,3.05
2023-04-25T04:16:45.976Z,2.65
2023-04-25T04:19:13.548Z,4.10
2023-04-25T04:21:45.277Z,2.50
2023-04-25T04:24:13.343Z,3.67
2023-04-25T04:26:51.886Z,3.22
2023-04-25T04:29:44.923Z,7.13
2023-04-25T04:32:16.563Z,2.83
2023-04-25T04:34:43.683Z,3.65
2023-04-25T04:37:14.213Z,2.70
2023-04-25T04:39:42.530Z,2.60
2023-04-25T04:42:40.448Z,5.30
2023-04-25T04:45:26.433Z,2.33
2023-04-25T04:48:16.538Z,1.98
2023-04-25T04:51:06.313Z,2.83
2023-04-25T04:53:50.045Z,2.95
2023-04-25T04:56:40.594Z,4.38
2023-04-25T04:59:36.512Z,2.63
2023-04-25T05:02:12.052Z,2.55
2023-04-25T05:04:49.491Z,2.92
2023-04-25T05:07:45.854Z,3.13
2023-04-25T05:10:28.276Z,2.10
2023-04-25T05:13:01.266Z,5.10
2023-04-25T05:15:46.971Z,2.10
2023-04-25T05:18:43.411Z,2.80
2023-04-25T05:21:24.262Z,2.13
2023-04-25T05:24:10.960Z,3.92
2023-04-25T05:26:56.324Z,1.98
2023-04-25T05:29:34.128Z,2.03
2023-04-25T05:32:07.127Z,3.17
2023-04-25T05:34:34.823Z,2.88
2023-04-25T05:37:06.090Z,3.53
2023-04-25T05:39:36.378Z,3.65
2023-04-25T05:42:32.422Z,3.55
2023-04-25T05:45:08.817Z,2.42
2023-04-25T05:47:48.046Z,2.25
2023-04-25T05:50:22.880Z,2.92
2023-04-25T05:52:54.309Z,4.82
2023-04-25T05:55:27.876Z,2.40
2023-04-25T05:57:55.458Z,2.33
2023-04-25T06:00:23.918Z,2.85
2023-04-25T06:02:51.467Z,4.32
2023-04-25T06:05:19.506Z,3.22
2023-04-25T06:07:48.033Z,4.47
2023-04-25T06:10:15.236Z,2.17
2023-04-25T06:12:43.268Z,2.55
2023-04-25T06:15:24.422Z,4.22
2023-04-25T06:17:55.909Z,4.15
2023-04-25T06:20:25.508Z,4.10
2023-04-25T06:22:54.341Z,4.72
2023-04-25T06:25:27.050Z,3.50
2023-04-25T06:27:55.152Z,4.43
2023-04-25T06:30:26.708Z,5.07
2023-04-25T06:32:58.593Z,2.72
2023-04-25T06:35:26.079Z,3.53
2023-04-25T06:37:53.781Z,3.67
2023-04-25T06:40:23.351Z,4.53
2023-04-25T06:42:53.413Z,2.15
2023-04-25T06:45:38.030Z,2.83
2023-04-25T06:48:05.359Z,3.50
2023-04-25T06:50:32.363Z,2.00
2023-04-25T06:52:59.410Z,7.18
2023-04-25T06:55:26.631Z,3.05
2023-04-25T06:58:16.868Z,2.67
2023-04-25T07:01:02.373Z,4.05
2023-04-25T07:03:29.740Z,3.03
2023-04-25T07:06:01.208Z,5.40
2023-04-25T07:08:33.087Z,3.78
2023-04-25T07:11:00.530Z,4.47
2023-04-25T07:13:27.572Z,4.00
2023-04-25T07:15:56.706Z,5.10
2023-04-25T07:18:27.163Z,5.05
2023-04-25T07:20:54.171Z,8.95
2023-04-25T07:23:21.475Z,6.65
2023-04-25T07:25:48.976Z,7.53
2023-04-25T07:28:21.481Z,3.63
2023-04-25T07:30:48.556Z,3.88
2023-04-25T07:33:15.876Z,4.80
2023-04-25T07:35:42.997Z,3.70
2023-04-25T07:38:11.541Z,4.05
2023-04-25T07:40:41.951Z,5.60
2023-04-25T07:43:13.420Z,4.28
2023-04-25T07:45:48.558Z,4.32
2023-04-25T07:48:22.235Z,3.53
2023-04-25T07:50:52.049Z,5.57
2023-04-25T07:53:20.013Z,2.58
2023-04-25T07:55:53.962Z,2.50
2023-04-25T07:58:23.244Z,2.92
2023-04-25T08:01:07.790Z,4.47
2023-04-25T08:03:55.088Z,3.28
2023-04-25T08:06:28.627Z,2.50
2023-04-25T08:09:22.326Z,9.70
2023-04-25T08:11:50.016Z,4.82
2023-04-25T08:14:21.187Z,4.45
2023-04-25T08:16:49.343Z,4.28
2023-04-25T08:19:16.964Z,3.38
2023-04-25T08:21:45.338Z,2.17
2023-04-25T08:24:16.652Z,4.72
2023-04-25T08:26:44.728Z,3.10
2023-04-25T08:29:16.682Z,2.97
2023-04-25T08:31:44.458Z,4.72
2023-04-25T08:34:12.326Z,2.40
2023-04-25T08:36:44.680Z,4.40
2023-04-25T08:39:34.655Z,1.70
2023-04-25T08:42:24.337Z,3.65
2023-04-25T08:44:54.197Z,3.75
2023-04-25T08:47:25.665Z,3.88
2023-04-25T08:49:57.487Z,3.20
2023-04-25T08:52:25.777Z,2.42
2023-04-25T08:54:55.482Z,3.92
2023-04-25T08:57:23.756Z,2.35
2023-04-25T08:59:53.965Z,2.42
2023-04-25T09:04:51.944Z,3.40
2023-04-25T09:07:22.407Z,3.92
2023-04-25T09:09:50.711Z,3.50
2023-04-25T09:12:21.588Z,2.28
2023-04-25T09:15:11.496Z,1.85
2023-04-25T09:18:02.595Z,2.95
2023-04-25T09:23:16.460Z,2.78
2023-04-25T09:25:47.138Z,1.90
2023-04-25T09:28:14.198Z,2.83
2023-04-25T09:30:41.391Z,3.28
2023-04-25T09:33:16.207Z,3.47
2023-04-25T09:35:54.045Z,2.05
2023-04-25T09:38:47.420Z,2.50
2023-04-25T09:41:28.104Z,2.85
2023-04-25T09:44:00.255Z,1.90
2023-04-25T09:46:38.844Z,3.38
2023-04-25T09:49:16.373Z,3.28
2023-04-25T09:51:59.989Z,3.53
2023-04-25T09:54:36.594Z,2.65
2023-04-25T09:57:22.543Z,2.22
2023-04-25T09:59:55.300Z,2.88
2023-04-25T10:02:26.362Z,2.28
2023-04-25T10:04:57.972Z,3.00
2023-04-25T10:07:31.807Z,1.90
2023-04-25T10:10:03.078Z,2.85
2023-04-25T10:12:32.387Z,2.65
2023-04-25T10:15:00.359Z,1.48
2023-04-25T10:17:30.561Z,2.25
2023-04-25T10:19:57.851Z,1.40
2023-04-25T10:22:35.476Z,1.88
2023-04-25T10:25:07.224Z,3.78
2023-04-25T10:27:35.924Z,2.75
2023-04-25T10:30:12.261Z,2.47
2023-04-25T10:32:39.745Z,1.92
2023-04-25T10:35:13.732Z,3.33
2023-04-25T10:38:07.459Z,4.20
2023-04-25T10:40:34.936Z,3.53
2023-04-25T10:43:34.937Z,2.65
2023-04-25T10:46:02.359Z,1.70
2023-04-25T10:48:31.515Z,1.98
2023-04-25T10:51:47.378Z,2.40
2023-04-25T10:54:21.396Z,2.00
2023-04-25T10:56:51.292Z,1.92
2023-04-25T10:59:19.814Z,3.30
2023-04-25T11:01:53.043Z,2.75
2023-04-25T11:04:31.045Z,4.88
2023-04-25T11:07:23.889Z,3.50
2023-04-25T11:09:51.337Z,3.03
2023-04-25T11:12:18.747Z,3.50
2023-04-25T11:14:45.765Z,3.97
2023-04-25T11:17:15.916Z,2.22
2023-04-25T11:19:49.264Z,4.20
2023-04-25T11:22:16.437Z,5.32
2023-04-25T11:24:43.954Z,3.65
2023-04-25T11:27:11.134Z,4.53
2023-04-25T11:29:38.793Z,6.53
2023-04-25T11:32:06.550Z,5.43
2023-04-25T11:34:34.569Z,3.00
2023-04-25T11:37:03.328Z,2.70
2023-04-25T11:39:31.161Z,2.65
2023-04-25T11:41:58.381Z,1.70
2023-04-25T11:44:27.066Z,2.22
2023-04-25T11:46:54.484Z,2.03
2023-04-25T11:49:23.328Z,2.80
2023-04-25T11:51:50.841Z,3.45
2023-04-25T11:54:19.265Z,1.90
2023-04-25T11:56:47.522Z,3.22
2023-04-25T11:59:15.314Z,2.80
2023-04-25T12:01:51.206Z,2.15
2023-04-25T12:04:21.539Z,3.00
2023-04-25T12:09:19.829Z,1.95
2023-04-25T12:11:55.278Z,1.60
2023-04-25T12:14:32.097Z,1.75
2023-04-25T12:17:00.971Z,1.88
2023-04-25T12:19:34.489Z,1.38
2023-04-25T12:22:04.356Z,1.60
2023-04-25T12:24:38.738Z,1.40
2023-04-25T12:27:09.592Z,1.65
2023-04-25T12:32:07.164Z,1.33
2023-04-25T12:34:36.959Z,0.82
2023-04-25T12:37:04.518Z,0.95
2023-04-25T12:39:31.695Z,2.53
2023-04-25T12:41:58.718Z,1.15
2023-04-25T12:44:25.690Z,2.13
2023-04-25T12:46:52.854Z,2.33
2023-04-25T12:49:20.216Z,1.65
2023-04-25T12:51:48.018Z,1.63
2023-04-25T12:54:15.622Z,1.35
2023-04-25T12:56:43.358Z,3.13
2023-04-25T12:59:10.642Z,0.85
2023-04-25T13:01:37.873Z,1.35
2023-04-25T13:04:05.156Z,1.48
2023-04-25T13:06:32.554Z,0.90
2023-04-25T13:08:59.641Z,0.80
2023-04-25T13:11:26.777Z,1.30
2023-04-25T13:13:54.256Z,0.82
2023-04-25T13:16:24.351Z,1.20
2023-04-25T13:18:51.386Z,0.88
2023-04-25T13:21:18.504Z,0.70
2023-04-25T13:23:47.796Z,1.60
2023-04-25T13:26:14.913Z,1.17
2023-04-25T13:28:43.589Z,0.80
2023-04-25T13:31:12.039Z,0.90
2023-04-25T13:33:39.189Z,1.83
2023-04-25T13:36:06.746Z,1.38
2023-04-25T13:38:34.017Z,1.48
2023-04-25T13:41:02.122Z,1.83
2023-04-25T13:43:29.300Z,1.48
2023-04-25T13:45:56.407Z,1.70
2023-04-25T13:48:24.541Z,1.63
2023-04-25T13:50:52.099Z,2.45
2023-04-25T13:53:19.168Z,1.42
2023-04-25T13:55:46.946Z,1.13
2023-04-25T13:58:17.190Z,1.90
2023-04-25T14:00:46.568Z,1.20
2023-04-25T14:03:16.779Z,1.50
2023-04-25T14:05:43.904Z,1.40
2023-04-25T14:08:11.435Z,2.03
2023-04-25T14:10:39.075Z,1.30
2023-04-25T14:13:08.303Z,1.15
2023-04-25T14:18:03.926Z,1.52
2023-04-25T14:20:31.352Z,3.92
2023-04-25T14:22:59.402Z,1.52
2023-04-25T14:25:26.654Z,2.47
2023-04-25T14:27:53.791Z,2.50
2023-04-25T14:30:22.172Z,1.48
2023-04-25T14:32:52.479Z,1.95
2023-04-25T14:35:19.842Z,1.40
2023-04-25T14:37:47.012Z,1.48
2023-04-25T14:40:16.643Z,1.80
2023-04-25T14:42:44.095Z,1.13
2023-04-25T14:45:11.689Z,1.55
2023-04-25T14:47:39.192Z,2.60
2023-04-25T14:50:07.750Z,1.75
2023-04-25T14:52:35.522Z,2.47
2023-04-25T14:55:06.359Z,1.88
2023-04-25T14:57:34.790Z,1.50
2023-04-25T15:00:02.929Z,3.90
2023-04-25T15:02:30.063Z,1.60
2023-04-25T15:04:57.822Z,1.88
2023-04-25T15:07:25.220Z,1.60
2023-04-25T15:09:54.459Z,1.60
2023-04-25T15:12:21.716Z,2.03
2023-04-25T15:14:48.807Z,1.70
2023-04-25T15:17:16.094Z,1.67
2023-04-25T15:19:46.610Z,2.42
2023-04-25T15:22:14.373Z,3.70
2023-04-25T15:24:41.432Z,2.42
2023-04-25T15:27:10.025Z,2.58
2023-04-25T15:29:36.973Z,2.20
2023-04-25T15:32:04.315Z,2.08
2023-04-25T15:34:31.712Z,3.88
2023-04-25T15:36:59.223Z,5.93
2023-04-25T15:39:26.293Z,8.77
2023-04-25T15:41:53.410Z,3.47
2023-04-25T15:44:20.481Z,3.83
2023-04-25T15:46:47.551Z,4.18
2023-04-25T15:49:14.589Z,5.70
2023-04-25T15:51:41.759Z,4.13
2023-04-25T15:54:09.184Z,3.83
2023-04-25T15:56:36.220Z,6.03
2023-04-25T15:59:03.292Z,6.13
2023-04-25T16:01:33.876Z,4.57
2023-04-25T16:04:01.919Z,7.15
2023-04-25T16:06:29.232Z,6.05
2023-04-25T16:08:56.379Z,5.45
2023-04-25T16:11:23.745Z,7.03
2023-04-25T16:13:51.740Z,6.00
2023-04-25T16:16:18.961Z,6.90
2023-04-25T16:18:46.301Z,5.90
2023-04-25T16:21:17.320Z,7.40
2023-04-25T16:23:44.585Z,6.22
2023-04-25T16:26:11.731Z,4.68
2023-04-25T16:28:38.735Z,5.32
2023-04-25T16:31:06.994Z,5.40
2023-04-25T16:33:34.761Z,3.13
2023-04-25T16:36:02.305Z,4.03
2023-04-25T16:38:29.345Z,3.20
2023-04-25T16:40:56.376Z,4.40
2023-04-25T16:43:26.413Z,5.43
2023-04-25T16:45:53.470Z,4.32
2023-04-25T16:48:24.421Z,3.92
2023-04-25T16:50:52.943Z,4.63
2023-04-25T16:53:22.230Z,4.78
2023-04-25T16:55:49.376Z,4.45
2023-04-25T16:58:16.746Z,4.32
2023-04-25T17:00:44.192Z,3.60
2023-04-25T17:03:11.532Z,6.60
2023-04-25T17:05:38.697Z,4.15
2023-04-25T17:08:05.814Z,5.35
2023-04-25T17:10:34.065Z,7.10
2023-04-25T17:13:00.981Z,6.85
2023-04-25T17:15:28.581Z,7.55
2023-04-25T17:17:55.711Z,5.38
2023-04-25T17:20:23.258Z,5.60
2023-04-25T17:22:50.517Z,4.20
2023-04-25T17:25:17.553Z,2.40
2023-04-25T17:27:44.576Z,3.58
2023-04-25T17:30:12.797Z,5.00
2023-04-25T17:32:40.034Z,4.80
2023-04-25T17:35:07.600Z,3.42
2023-04-25T17:37:34.612Z,4.05
2023-04-25T17:40:01.925Z,2.50
2023-04-25T17:42:28.948Z,4.78
2023-04-25T17:44:56.746Z,4.65
2023-04-25T17:47:32.215Z,8.77
2023-04-25T17:49:59.253Z,7.07
2023-04-25T17:52:26.601Z,8.57
2023-04-25T17:54:56.920Z,6.78
2023-04-25T17:57:25.424Z,4.20
2023-04-25T17:59:54.198Z,6.80
2023-04-25T18:02:22.077Z,5.75
2023-04-25T18:04:49.384Z,3.15
2023-04-25T18:07:19.622Z,3.17
2023-04-25T18:09:46.642Z,5.57
2023-04-25T18:12:15.458Z,5.55
2023-04-25T18:14:42.476Z,6.13
2023-04-25T18:17:10.150Z,7.13
2023-04-25T18:19:37.216Z,6.07
2023-04-25T18:22:04.356Z,5.07
2023-04-25T18:24:32.341Z,7.78
2023-04-25T18:27:02.615Z,8.27
2023-04-25T18:29:33.647Z,5.38
2023-04-25T18:32:01.624Z,10.18
2023-04-25T18:34:28.734Z,6.72
2023-04-25T18:36:56.663Z,7.20
2023-04-25T18:39:27.437Z,5.85
2023-04-25T18:42:04.120Z,5.65
2023-04-25T18:44:36.686Z,7.65
2023-04-25T18:47:03.768Z,5.28
2023-04-25T18:49:31.924Z,7.35
2023-04-25T18:51:59.101Z,7.30
2023-04-25T18:54:29.230Z,6.55
2023-04-25T18:56:57.636Z,8.93
2023-04-25T18:59:24.747Z,5.82
2023-04-25T19:01:53.867Z,6.32
2023-04-25T19:04:21.563Z,5.97
2023-04-25T19:06:53.750Z,5.80
2023-04-25T19:09:20.883Z,6.65
2023-04-25T19:11:47.954Z,13.38
2023-04-25T19:14:17.075Z,18.80
2023-04-25T19:16:44.493Z,26.00
2023-04-25T19:19:11.641Z,26.35
2023-04-25T19:21:38.949Z,26.27
2023-04-25T19:24:07.158Z,15.40
2023-04-25T19:26:34.567Z,12.25
2023-04-25T19:29:06.217Z,8.68
2023-04-25T19:31:35.716Z,6.60
2023-04-25T19:34:04.845Z,10.10
2023-04-25T19:36:32.205Z,10.43
2023-04-25T19:39:04.059Z,8.55
2023-04-25T19:41:32.334Z,8.18
2023-04-25T19:44:04.752Z,9.13
2023-04-25T19:46:32.181Z,8.82
2023-04-25T19:49:17.217Z,6.43
2023-04-25T19:51:44.290Z,7.88
2023-04-25T19:54:11.380Z,8.13
2023-04-25T19:56:41.252Z,5.90
2023-04-25T19:59:08.269Z,5.15
2023-04-25T20:01:36.124Z,5.68
2023-04-25T20:04:03.331Z,5.65
2023-04-25T20:06:31.103Z,6.68
2023-04-25T20:08:58.133Z,4.65
2023-04-25T20:11:28.670Z,5.82
2023-04-25T20:13:56.486Z,4.82
2023-04-25T20:16:23.614Z,6.10
2023-04-25T20:18:53.194Z,6.30
2023-04-25T20:21:20.529Z,6.65
2023-04-25T20:23:47.544Z,6.65
2023-04-25T20:26:14.542Z,5.97
2023-04-25T20:28:44.323Z,8.30
2023-04-25T20:31:11.705Z,10.43
2023-04-25T20:33:38.981Z,7.40
2023-04-25T20:36:06.112Z,7.80
2023-04-25T20:38:33.099Z,8.70
2023-04-25T20:41:00.694Z,7.50
2023-04-25T20:43:27.748Z,7.53
2023-04-25T20:45:55.080Z,7.25
2023-04-25T20:48:22.538Z,7.43
2023-04-25T20:50:49.846Z,6.18
2023-04-25T20:53:16.922Z,5.45
2023-04-25T20:55:44.390Z,7.85
2023-04-25T20:58:11.427Z,8.23
2023-04-25T21:00:39.173Z,6.22
2023-04-25T21:03:07.432Z,5.65
2023-04-25T21:05:42.166Z,5.10
2023-04-25T21:08:09.756Z,4.35
2023-04-25T21:10:37.485Z,6.47
2023-04-25T21:13:05.196Z,4.88
2023-04-25T21:15:32.300Z,5.55
2023-04-25T21:17:59.361Z,5.03
2023-04-25T21:20:26.483Z,6.57
2023-04-25T21:22:54.435Z,7.45
2023-04-25T21:25:31.756Z,5.78
2023-04-25T21:27:59.463Z,6.90
2023-04-25T21:30:27.044Z,8.80
2023-04-25T21:32:54.189Z,14.02
2023-04-25T21:35:22.629Z,14.68
2023-04-25T21:37:50.279Z,16.75
2023-04-25T21:40:17.767Z,14.25
2023-04-25T21:42:50.014Z,12.55
2023-04-25T21:45:17.540Z,11.25
2023-04-25T21:47:46.776Z,6.60
2023-04-25T21:50:14.857Z,10.02
2023-04-25T21:52:44.998Z,6.88
2023-04-25T21:55:12.109Z,8.40
2023-04-25T21:57:39.167Z,7.75
2023-04-25T22:00:20.242Z,7.90
2023-04-25T22:02:48.572Z,7.28
2023-04-25T22:05:16.306Z,8.82
2023-04-25T22:07:43.358Z,7.65
2023-04-25T22:10:10.912Z,10.15
2023-04-25T22:12:37.960Z,7.93
2023-04-25T22:15:05.700Z,8.52
2023-04-25T22:17:33.493Z,7.93
2023-04-25T22:20:01.039Z,8.32
2023-04-25T22:22:28.478Z,6.20
2023-04-25T22:24:55.495Z,7.22
2023-04-25T22:27:22.572Z,7.28
2023-04-25T22:29:49.538Z,7.75
2023-04-25T22:32:16.847Z,6.13
2023-04-25T22:34:43.966Z,6.30
2023-04-25T22:37:11.344Z,5.68
2023-04-25T22:39:38.544Z,6.03
2023-04-25T22:42:06.140Z,6.50
2023-04-25T22:44:34.137Z,7.35
2023-04-25T22:47:01.661Z,6.38
2023-04-25T22:49:28.902Z,4.53
2023-04-25T22:51:57.013Z,5.63
2023-04-25T22:54:24.285Z,5.60
2023-04-25T22:56:51.386Z,7.13
2023-04-25T22:59:20.844Z,6.60
2023-04-25T23:01:50.125Z,6.78
2023-04-25T23:04:19.156Z,4.88
2023-04-25T23:06:46.623Z,6.80
2023-04-25T23:09:14.230Z,6.95
2023-04-25T23:11:44.248Z,5.68
2023-04-25T23:14:11.225Z,6.60
2023-04-25T23:16:38.232Z,8.38
2023-04-25T23:19:05.280Z,6.43
2023-04-25T23:21:33.476Z,7.72
2023-04-25T23:24:00.500Z,5.80
2023-04-25T23:26:27.600Z,6.40
2023-04-25T23:28:55.067Z,5.40
2023-04-25T23:31:22.312Z,6.13
2023-04-25T23:33:49.300Z,5.57
2023-04-25T23:36:21.360Z,6.03
2023-04-25T23:38:50.694Z,6.32
2023-04-25T23:41:18.287Z,5.20
2023-04-25T23:43:45.323Z,7.22
2023-04-25T23:46:12.665Z,5.18
2023-04-25T23:48:40.030Z,8.20
2023-04-25T23:51:07.009Z,4.88
2023-04-25T23:53:33.958Z,7.22
2023-04-25T23:56:01.007Z,7.38
2023-04-25T23:58:28.037Z,5.72
